PASIPAKT

Guest
Details From PASI - SITKA ROCKY GUTIERREZ
To PAKT - KETCHIKAN INTL
Flight Number -
Tags decoded
Created
Modified
Stats Distance 159 nm / 294 km
Max Altitude 0 ft / 0 m
Waypoints 2
Social Downloads 0
Likes 0
Share VATSIM

Download

Looking for another format? Having issues loading an existing format? Contact us
Advertisement - Login to hide

Notes

Requested: PASI PAKT

Route

PASI PAKT

ID Type Via Altitude Latitude Longitude Leg Dist Tot Dist Heading (true) Name
O PASI APT - 0 ft / 0 m 57.04713˚ -135.36160˚ - 0 nm - SITKA ROCKY GUTIERREZ
O PAKT APT - 0 ft / 0 m 55.35554˚ -131.71374˚ 158 nm 158 nm 128° / 131° KETCHIKAN INTL

Altitude Profile

Advertisement - Login to hide

PASI

Details ICAO PASI (SIT)
Name SITKA ROCKY GUTIERREZ
Region USA (Alaska)
Timezone America/Juneau (UTC-8.0)
Stats Elevation 21 ft / 6 m (AMSL)
Location 57.047128° -135.361597°
Runways 1
Magnetic Variation 18.634° E

METAR

PASI 220053Z 19014KT 8SM FEW015 SCT027 OVC045 11/08 A2972

Decode

TAF

TAF AMD PASI 220120Z 2201/2224 19014KT P6SM -SHRA FEW015 SCT027 OVC045 WS020/15045KT TEMPO 2201/2202 19025G35KT 3SM SHRA BR SCT015 OVC025 FM220200 14011KT P6SM -SHRA SCT015 OVC025 FM220900 15007KT P6SM -SHRA BKN030 OVC050 FM221500 15008G16KT 6SM -SHRA SCT025 OVC035

Decode

Departure Runways

ID Width Length Bearing (true) Bearing (mag) Surface Threshold Offset Overrun Length
11 150 ft / 46 m 6,485 ft / 1,977 m 135.57° 116.94° Asphalt 0 ft / 0 m 0 ft / 0 m
29 150 ft / 46 m 6,485 ft / 1,977 m 315.59° 296.96° Asphalt 0 ft / 0 m 0 ft / 0 m

PAKT

Details ICAO PAKT (KTN)
Name KETCHIKAN INTL
Region USA (Alaska)
Timezone Unknown (UTC+0.0)
Stats Elevation 88 ft / 27 m (AMSL)
Location 55.355545° -131.713737°
Runways 1
Magnetic Variation 18.430° E

METAR

PAKT 220053Z 15013G24KT 7SM -RA SCT015 OVC023 11/09 A2991

Decode

TAF

TAF PAKT 212328Z 2200/2224 14018G28KT P6SM -RA FEW008 BKN020 OVC035 WS020/16045KT TEMPO 2200/2203 4SM RA BR SCT007 OVC015 FM220300 14015G25KT 4SM RA BR OVC025 WS020/16045KT FM221200 14011KT 6SM -SHRA SCT015 OVC025 FM221800 13008KT 5SM -SHRA BR BKN015 OVC025 AMD LTD TO CLD VIS AND WIND 2206/2215

Decode

Destination Runways

ID Width Length Bearing (true) Bearing (mag) Surface Threshold Offset Overrun Length
11 150 ft / 46 m 7,485 ft / 2,281 m 135.66° 117.23° Asphalt 0 ft / 0 m 200 ft / 61 m
29 150 ft / 46 m 7,485 ft / 2,281 m 315.68° 297.25° Asphalt 0 ft / 0 m 100 ft / 30 m

Approach Navaids

Runway Type Ident Frequency Range Bearing (true) Bearing (mag) Slope Elevation
11 Localiser IECH 109.30 MHz 18 nm / 33 km 135.69° 117.26° - 66 ft / 20 m (AMSL)
11 Glidescope IECH 109.30 MHz 10 nm / 19 km 135.67° 117.24° 3.61° 76 ft / 23 m (AMSL)
11 DME IECH 109.30 MHz 18 nm / 33 km - - - 98 ft / 30 m (AMSL)

Popular Alternatives